METAR Data
IDs: Format: Raw Decoded Include TAF

Data at: 1556 UTC 04 Aug 2021

ETNW 041520Z 07005KT 9999 FEW040CB SCT050 BKN110 22/13 Q1012 BLU BLU TEMPO GRN